createdAt,value
2023-03-26T00:00:35.196Z,99394.71
2023-03-26T00:03:10.204Z,99392.53
2023-03-26T00:05:45.717Z,99393.06
2023-03-26T00:08:20.083Z,99387.04
2023-03-26T00:10:52.907Z,99390.95
2023-03-26T00:13:26.421Z,99394.02
2023-03-26T00:15:59.763Z,99395.39
2023-03-26T00:18:34.829Z,99389.44
2023-03-26T00:21:10.752Z,99388.88
2023-03-26T00:23:44.073Z,99379.20
2023-03-26T00:26:19.124Z,99379.52
2023-03-26T00:28:53.291Z,99382.20
2023-03-26T00:31:26.476Z,99374.30
2023-03-26T00:34:01.783Z,99377.83
2023-03-26T00:36:36.366Z,99372.19
2023-03-26T00:39:10.337Z,99376.59
2023-03-26T00:41:44.525Z,99369.66
2023-03-26T00:44:17.723Z,99360.39
2023-03-26T00:46:51.144Z,99358.73
2023-03-26T00:49:25.658Z,99359.45
2023-03-26T00:51:59.672Z,99354.80
2023-03-26T00:54:33.169Z,99355.69
2023-03-26T00:57:07.077Z,99354.03
2023-03-26T00:59:40.734Z,99347.05
2023-03-26T01:02:18.619Z,99336.88
2023-03-26T01:05:00.750Z,99336.20
2023-03-26T01:07:35.477Z,99336.05
2023-03-26T01:10:09.294Z,99339.53
2023-03-26T01:12:42.520Z,99339.61
2023-03-26T01:15:15.574Z,99338.16
2023-03-26T01:17:51.129Z,99333.76
2023-03-26T01:20:27.854Z,99337.42
2023-03-26T01:23:05.462Z,99334.47
2023-03-26T01:25:42.283Z,99332.28
2023-03-26T01:28:17.076Z,99327.73
2023-03-26T01:31:03.399Z,99326.22
2023-03-26T01:33:47.148Z,99331.92
2023-03-26T01:36:32.659Z,99325.94
2023-03-26T01:39:33.785Z,99329.53
2023-03-26T01:42:19.838Z,99328.97
2023-03-26T01:44:57.998Z,99324.17
2023-03-26T01:47:31.881Z,99318.54
2023-03-26T01:50:04.916Z,99322.73
2023-03-26T01:52:37.874Z,99319.70
2023-03-26T01:55:12.046Z,99317.66
2023-03-26T01:58:11.013Z,99322.03
2023-03-26T02:01:09.662Z,99322.03
2023-03-26T02:03:56.496Z,99320.66
2023-03-26T02:06:34.632Z,99323.12
2023-03-26T02:09:10.404Z,99323.53
2023-03-26T02:11:44.617Z,99320.78
2023-03-26T02:14:18.141Z,99318.03
2023-03-26T02:16:51.713Z,99317.72
2023-03-26T02:19:25.703Z,99318.75
2023-03-26T02:22:00.255Z,99317.52
2023-03-26T02:24:34.402Z,99321.81
2023-03-26T02:27:12.663Z,99314.34
2023-03-26T02:29:45.509Z,99311.88
2023-03-26T02:32:19.781Z,99319.91
2023-03-26T02:34:52.842Z,99318.76
2023-03-26T02:37:26.359Z,99312.91
2023-03-26T02:40:01.317Z,99323.02
2023-03-26T02:42:36.184Z,99320.41
2023-03-26T02:45:09.895Z,99317.88
2023-03-26T02:47:54.823Z,99316.58
2023-03-26T02:50:46.406Z,99311.60
2023-03-26T02:53:28.631Z,99311.60
2023-03-26T02:56:03.286Z,99308.85
2023-03-26T02:58:38.228Z,99309.20
2023-03-26T03:01:13.328Z,99314.48
2023-03-26T03:03:49.210Z,99323.12
2023-03-26T03:06:26.659Z,99317.86
2023-03-26T03:09:03.023Z,99322.93
2023-03-26T03:11:43.708Z,99325.53
2023-03-26T03:14:17.105Z,99324.09
2023-03-26T03:16:50.112Z,99323.87
2023-03-26T03:19:23.111Z,99320.20
2023-03-26T03:21:56.838Z,99315.55
2023-03-26T03:24:32.082Z,99317.74
2023-03-26T03:27:05.582Z,99320.11
2023-03-26T03:29:41.634Z,99319.61
2023-03-26T03:32:16.335Z,99317.67
2023-03-26T03:34:52.073Z,99318.44
2023-03-26T03:37:25.614Z,99317.20
2023-03-26T03:39:59.912Z,99313.83
2023-03-26T03:42:35.717Z,99315.28
2023-03-26T03:45:09.710Z,99316.73
2023-03-26T03:48:01.021Z,99302.82
2023-03-26T03:50:36.248Z,99307.69
2023-03-26T03:53:15.024Z,99295.88
2023-03-26T03:55:54.471Z,99285.88
2023-03-26T03:58:31.316Z,99292.33
2023-03-26T04:01:06.508Z,99285.17
2023-03-26T04:03:50.363Z,99293.91
2023-03-26T04:06:24.953Z,99284.86
2023-03-26T04:08:58.962Z,99282.39
2023-03-26T04:11:32.448Z,99281.97
2023-03-26T04:14:24.016Z,99283.70
2023-03-26T04:17:02.582Z,99284.50
2023-03-26T04:19:37.712Z,99280.31
2023-03-26T04:22:12.418Z,99278.13
2023-03-26T04:24:48.993Z,99283.41
2023-03-26T04:27:28.893Z,99281.41
2023-03-26T04:30:05.922Z,99282.05
2023-03-26T04:32:40.662Z,99286.02
2023-03-26T04:35:17.233Z,99288.36
2023-03-26T04:37:53.234Z,99291.84
2023-03-26T04:40:29.732Z,99280.00
2023-03-26T04:43:04.789Z,99278.95
2023-03-26T04:45:39.752Z,99274.97
2023-03-26T04:48:16.538Z,99271.19
2023-03-26T04:50:50.641Z,99275.23
2023-03-26T04:53:26.295Z,99276.00
2023-03-26T04:56:43.631Z,99279.01
2023-03-26T04:59:37.281Z,99278.48
2023-03-26T05:02:15.798Z,99276.55
2023-03-26T05:04:53.799Z,99275.61
2023-03-26T05:07:26.801Z,99280.69
2023-03-26T05:10:03.988Z,99274.59
2023-03-26T05:12:46.003Z,99271.17
2023-03-26T05:15:20.923Z,99270.75
2023-03-26T05:18:00.571Z,99274.80
2023-03-26T05:20:46.645Z,99265.33
2023-03-26T05:23:21.160Z,99272.79
2023-03-26T05:25:56.234Z,99270.61
2023-03-26T05:28:29.835Z,99267.79
2023-03-26T05:31:08.619Z,99269.66
2023-03-26T05:33:43.727Z,99272.41
2023-03-26T05:36:19.407Z,99280.89
2023-03-26T05:38:54.320Z,99268.14
2023-03-26T05:41:32.041Z,99266.16
2023-03-26T05:44:05.311Z,99260.73
2023-03-26T05:46:39.221Z,99262.25
2023-03-26T05:49:13.581Z,99257.62
2023-03-26T05:51:47.257Z,99262.23
2023-03-26T05:54:22.579Z,99263.88
2023-03-26T05:57:14.132Z,99262.91
2023-03-26T06:00:00.790Z,99262.98
2023-03-26T06:02:52.444Z,99263.34
2023-03-26T06:05:40.629Z,99267.18
2023-03-26T06:08:16.816Z,99267.70
2023-03-26T06:10:52.059Z,99264.15
2023-03-26T06:13:25.489Z,99263.37
2023-03-26T06:15:59.862Z,99257.34
2023-03-26T06:18:37.889Z,99259.59
2023-03-26T06:21:28.009Z,99258.98
2023-03-26T06:24:02.613Z,99258.00
2023-03-26T06:26:40.111Z,99256.41
2023-03-26T06:29:28.312Z,99254.06
2023-03-26T06:32:18.440Z,99255.76
2023-03-26T06:34:42.793Z,99251.44
2023-03-26T06:37:16.631Z,99242.75
2023-03-26T06:39:50.979Z,99241.83
2023-03-26T06:42:32.144Z,99249.16
2023-03-26T06:45:07.282Z,99245.12
2023-03-26T06:47:39.544Z,99240.59
2023-03-26T06:50:31.880Z,99242.62
2023-03-26T06:53:15.998Z,99239.14
2023-03-26T06:56:00.312Z,99238.89
2023-03-26T06:58:33.642Z,99225.48
2023-03-26T07:01:26.654Z,99221.73
2023-03-26T07:04:17.501Z,99220.11
2023-03-26T07:07:08.445Z,99211.47
2023-03-26T07:09:59.598Z,99213.20
2023-03-26T07:12:49.874Z,99222.68
2023-03-26T07:15:30.060Z,99230.70
2023-03-26T07:18:11.741Z,99226.34
2023-03-26T07:20:48.835Z,99227.98
2023-03-26T07:23:24.382Z,99217.56
2023-03-26T07:26:00.057Z,99214.77
2023-03-26T07:29:04.780Z,99206.59
2023-03-26T07:32:00.628Z,99201.03
2023-03-26T07:34:56.454Z,99202.13
2023-03-26T07:38:07.369Z,99193.45
2023-03-26T07:41:11.153Z,99194.38
2023-03-26T07:44:05.891Z,99194.36
2023-03-26T07:46:52.147Z,99191.27
2023-03-26T07:49:25.876Z,99198.11
2023-03-26T07:52:16.842Z,99195.49
2023-03-26T07:54:59.642Z,99186.71
2023-03-26T07:58:12.322Z,99195.79
2023-03-26T08:01:05.024Z,99193.16
2023-03-26T08:04:00.834Z,99200.83
2023-03-26T08:06:39.764Z,99199.23
2023-03-26T08:09:58.240Z,99191.28
2023-03-26T08:13:21.562Z,99188.38
2023-03-26T08:16:04.640Z,99181.28
2023-03-26T08:19:25.734Z,99185.80
2023-03-26T08:22:17.097Z,99181.14
2023-03-26T08:25:33.737Z,99182.73
2023-03-26T08:28:35.393Z,99183.55
2023-03-26T08:31:12.910Z,99179.73
2023-03-26T08:33:46.132Z,99178.83
2023-03-26T08:36:19.191Z,99178.00
2023-03-26T08:38:52.910Z,99173.77
2023-03-26T08:41:52.497Z,99178.13
2023-03-26T08:44:50.648Z,99174.02
2023-03-26T08:47:59.428Z,99174.81
2023-03-26T08:50:59.833Z,99162.08
2023-03-26T08:54:10.679Z,99156.36
2023-03-26T08:57:16.167Z,99149.94
2023-03-26T09:00:15.943Z,99143.98
2023-03-26T09:03:25.316Z,99142.72
2023-03-26T09:06:38.134Z,99144.07
2023-03-26T09:09:36.553Z,99134.94
2023-03-26T09:12:49.857Z,99128.12
2023-03-26T09:15:48.576Z,99130.57
2023-03-26T09:18:54.466Z,99128.65
2023-03-26T09:22:02.459Z,99124.05
2023-03-26T09:24:58.399Z,99112.94
2023-03-26T09:27:55.921Z,99113.83
2023-03-26T09:31:07.412Z,99111.68
2023-03-26T09:33:55.778Z,99113.97
2023-03-26T09:36:55.884Z,99102.49
2023-03-26T09:39:38.091Z,99097.12
2023-03-26T09:42:20.992Z,99092.23
2023-03-26T09:45:06.447Z,99074.51
2023-03-26T09:47:55.875Z,99082.83
2023-03-26T09:50:45.524Z,99075.11
2023-03-26T09:53:32.221Z,99071.91
2023-03-26T09:56:18.802Z,99080.73
2023-03-26T09:59:07.100Z,99078.22
2023-03-26T10:02:20.512Z,99072.92
2023-03-26T10:05:17.996Z,99069.79
2023-03-26T10:08:04.507Z,99068.51
2023-03-26T10:10:44.718Z,99073.83
2023-03-26T10:13:28.308Z,99069.92
2023-03-26T10:16:35.296Z,99071.20
2023-03-26T10:19:34.463Z,99060.26
2023-03-26T10:22:30.962Z,99057.13
2023-03-26T10:25:34.099Z,99058.44
2023-03-26T10:28:39.764Z,99054.53
2023-03-26T10:31:37.652Z,99053.75
2023-03-26T10:34:29.200Z,99052.10
2023-03-26T10:37:13.487Z,99046.88
2023-03-26T10:40:10.017Z,99036.03
2023-03-26T10:42:54.051Z,99029.55
2023-03-26T10:46:02.381Z,99018.35
2023-03-26T10:48:55.048Z,99016.31
2023-03-26T10:52:09.544Z,99014.75
2023-03-26T10:55:18.402Z,99021.03
2023-03-26T10:58:06.265Z,99006.19
2023-03-26T11:00:47.420Z,99007.62
2023-03-26T11:03:49.374Z,99006.45
2023-03-26T11:06:41.848Z,99007.88
2023-03-26T11:09:47.343Z,99004.07
2023-03-26T11:12:40.205Z,99000.12
2023-03-26T11:15:41.707Z,99004.92
2023-03-26T11:18:38.716Z,99004.02
2023-03-26T11:21:41.906Z,98996.86
2023-03-26T11:24:28.951Z,98992.25
2023-03-26T11:27:14.936Z,98992.27
2023-03-26T11:30:04.898Z,98995.42
2023-03-26T11:32:46.560Z,98984.44
2023-03-26T11:35:41.961Z,98982.83
2023-03-26T11:38:42.219Z,98980.28
2023-03-26T11:41:26.370Z,98967.26
2023-03-26T11:44:34.014Z,98967.26
2023-03-26T11:47:12.463Z,98961.66
2023-03-26T11:49:48.212Z,98961.74
2023-03-26T11:52:21.909Z,98961.84
2023-03-26T11:54:56.565Z,98963.72
2023-03-26T11:57:33.545Z,98964.66
2023-03-26T12:00:20.966Z,98969.05
2023-03-26T12:02:59.998Z,98965.42
2023-03-26T12:05:37.604Z,98958.64
2023-03-26T12:08:34.287Z,98961.74
2023-03-26T12:11:11.937Z,98958.98
2023-03-26T12:13:58.631Z,98952.16
2023-03-26T12:16:32.679Z,98956.41
2023-03-26T12:19:21.165Z,98960.36
2023-03-26T12:21:54.909Z,98951.13
2023-03-26T12:24:34.185Z,98952.38
2023-03-26T12:27:29.027Z,98959.34
2023-03-26T12:30:12.596Z,98951.28
2023-03-26T12:32:47.362Z,98956.40
2023-03-26T12:35:30.335Z,98955.03
2023-03-26T12:38:24.120Z,98954.97
2023-03-26T12:41:08.200Z,98950.18
2023-03-26T12:44:55.268Z,98952.72
2023-03-26T12:47:58.376Z,98949.53
2023-03-26T12:49:13.299Z,98946.32
2023-03-26T12:52:13.307Z,98946.32
2023-03-26T12:54:53.913Z,98953.30
2023-03-26T12:57:34.651Z,98946.70
2023-03-26T13:00:38.158Z,98956.72
2023-03-26T13:03:32.871Z,98955.27
2023-03-26T13:06:59.298Z,98959.91
2023-03-26T13:09:23.418Z,98955.90
2023-03-26T13:12:26.007Z,98952.23
2023-03-26T13:15:06.987Z,98953.73
2023-03-26T13:17:50.464Z,98951.34
2023-03-26T13:20:52.880Z,98946.45
2023-03-26T13:23:36.385Z,98945.98
2023-03-26T13:26:29.230Z,98944.09
2023-03-26T13:29:58.418Z,98945.10
2023-03-26T13:33:05.249Z,98946.64
2023-03-26T13:36:14.399Z,98942.09
2023-03-26T13:38:59.157Z,98953.60
2023-03-26T13:41:37.782Z,98947.11
2023-03-26T13:44:22.823Z,98950.66
2023-03-26T13:47:03.619Z,98956.53
2023-03-26T13:49:41.602Z,98961.58
2023-03-26T13:52:25.131Z,98963.53
2023-03-26T13:55:21.121Z,98961.48
2023-03-26T13:58:13.991Z,98955.08
2023-03-26T14:00:57.937Z,98960.72
2023-03-26T14:03:58.293Z,98974.17
2023-03-26T14:06:40.274Z,98976.45
2023-03-26T14:09:23.945Z,98971.69
2023-03-26T14:12:21.627Z,98973.81
2023-03-26T14:15:04.666Z,98967.98
2023-03-26T14:17:52.187Z,98972.45
2023-03-26T14:20:58.503Z,98966.14
2023-03-26T14:23:41.758Z,98970.75
2023-03-26T14:27:05.814Z,98964.36
2023-03-26T14:30:02.942Z,98959.22
2023-03-26T14:32:56.364Z,98961.39
2023-03-26T14:36:02.881Z,98964.03
2023-03-26T14:38:52.442Z,98963.24
2023-03-26T14:41:54.551Z,98969.95
2023-03-26T14:44:52.160Z,98966.64
2023-03-26T14:47:26.947Z,98965.77
2023-03-26T14:50:40.894Z,98971.31
2023-03-26T14:53:30.225Z,98969.80
2023-03-26T14:56:10.464Z,98974.33
2023-03-26T14:59:26.274Z,98972.81
2023-03-26T15:02:19.084Z,98970.14
2023-03-26T15:05:30.420Z,98979.17
2023-03-26T15:08:58.915Z,98982.67
2023-03-26T15:12:12.141Z,98975.97
2023-03-26T15:15:26.637Z,98981.80
2023-03-26T15:18:16.710Z,98978.03
2023-03-26T15:21:09.214Z,98977.36
2023-03-26T15:24:28.024Z,98972.69
2023-03-26T15:27:38.331Z,98973.20
2023-03-26T15:30:45.040Z,98967.32
2023-03-26T15:34:00.908Z,98969.45
2023-03-26T15:36:53.879Z,98965.41
2023-03-26T15:39:59.829Z,98967.15
2023-03-26T15:43:03.929Z,98974.47
2023-03-26T15:45:44.396Z,98971.80
2023-03-26T15:48:25.265Z,98970.72
2023-03-26T15:51:22.201Z,98968.05
2023-03-26T15:54:24.060Z,98973.46
2023-03-26T15:57:24.163Z,98964.16
2023-03-26T16:00:14.835Z,98971.47
2023-03-26T16:03:14.313Z,98974.02
2023-03-26T16:06:16.010Z,98975.27
2023-03-26T16:09:00.794Z,98976.62
2023-03-26T16:11:54.213Z,98971.74
2023-03-26T16:14:48.480Z,98973.90
2023-03-26T16:17:23.738Z,98983.36
2023-03-26T16:20:35.341Z,98987.64
2023-03-26T16:23:14.976Z,98980.06
2023-03-26T16:26:10.853Z,98993.05
2023-03-26T16:28:55.729Z,98992.56
2023-03-26T16:31:37.571Z,98985.80
2023-03-26T16:34:32.080Z,98993.80
2023-03-26T16:37:09.785Z,98993.92
2023-03-26T16:39:44.558Z,98995.66
2023-03-26T16:42:34.296Z,98999.38
2023-03-26T16:45:37.496Z,98995.90
2023-03-26T16:48:27.543Z,98994.47
2023-03-26T16:51:29.250Z,98991.38
2023-03-26T16:54:09.881Z,98997.53
2023-03-26T16:57:06.991Z,98995.11
2023-03-26T17:00:32.750Z,98997.08
2023-03-26T17:03:38.098Z,98992.97
2023-03-26T17:06:34.844Z,98993.80
2023-03-26T17:09:27.905Z,98998.95
2023-03-26T17:12:45.817Z,99001.48
2023-03-26T17:15:43.650Z,99003.17
2023-03-26T17:18:56.448Z,98999.99
2023-03-26T17:21:58.685Z,99005.15
2023-03-26T17:24:57.465Z,99005.36
2023-03-26T17:28:17.804Z,99005.03
2023-03-26T17:31:07.968Z,99003.84
2023-03-26T17:33:42.286Z,99002.94
2023-03-26T17:36:18.096Z,99007.21
2023-03-26T17:38:53.244Z,99006.66
2023-03-26T17:41:58.919Z,98997.78
2023-03-26T17:44:53.079Z,98998.59
2023-03-26T17:47:49.073Z,98993.80
2023-03-26T17:50:33.408Z,98989.02
2023-03-26T17:53:22.730Z,98990.74
2023-03-26T17:55:57.020Z,98988.28
2023-03-26T17:58:35.975Z,98997.44
2023-03-26T18:01:34.437Z,99000.69
2023-03-26T18:04:11.390Z,98994.34
2023-03-26T18:07:32.970Z,98996.41
2023-03-26T18:10:35.425Z,98994.83
2023-03-26T18:13:38.755Z,98984.16
2023-03-26T18:16:26.553Z,98985.22
2023-03-26T18:19:14.299Z,98987.77
2023-03-26T18:21:52.562Z,98978.95
2023-03-26T18:24:33.440Z,98970.27
2023-03-26T18:27:19.856Z,98966.78
2023-03-26T18:30:02.753Z,98967.35
2023-03-26T18:32:36.050Z,98970.20
2023-03-26T18:35:24.453Z,98960.44
2023-03-26T18:38:00.327Z,98963.50
2023-03-26T18:40:42.756Z,98956.23
2023-03-26T18:43:32.489Z,98958.66
2023-03-26T18:45:57.092Z,98962.02
2023-03-26T18:48:31.287Z,98958.47
2023-03-26T18:51:07.171Z,98957.59
2023-03-26T18:53:57.168Z,98956.41
2023-03-26T18:56:42.654Z,98962.69
2023-03-26T18:59:34.123Z,98959.17
2023-03-26T19:02:14.092Z,98962.27
2023-03-26T19:04:49.369Z,98952.26
2023-03-26T19:07:26.837Z,98951.08
2023-03-26T19:10:01.590Z,98949.28
2023-03-26T19:12:36.992Z,98948.92
2023-03-26T19:15:18.461Z,98948.98
2023-03-26T19:17:56.981Z,98946.44
2023-03-26T19:20:34.688Z,98944.73
2023-03-26T19:23:09.224Z,98938.33
2023-03-26T19:25:55.004Z,98935.54
2023-03-26T19:28:33.726Z,98935.29
2023-03-26T19:31:26.035Z,98935.52
2023-03-26T19:34:16.021Z,98929.61
2023-03-26T19:37:04.523Z,98929.78
2023-03-26T19:39:44.794Z,98930.97
2023-03-26T19:42:43.784Z,98923.53
2023-03-26T19:45:11.222Z,98923.53
2023-03-26T19:47:50.090Z,98907.42
2023-03-26T19:50:30.770Z,98911.80
2023-03-26T19:53:25.231Z,98908.19
2023-03-26T19:56:13.594Z,98912.41
2023-03-26T19:58:46.755Z,98906.28
2023-03-26T20:01:28.412Z,98906.40
2023-03-26T20:04:07.637Z,98902.38
2023-03-26T20:06:44.099Z,98903.17
2023-03-26T20:09:16.808Z,98897.09
2023-03-26T20:11:50.639Z,98896.70
2023-03-26T20:14:24.800Z,98899.64
2023-03-26T20:16:57.354Z,98891.65
2023-03-26T20:19:30.891Z,98894.17
2023-03-26T20:22:06.254Z,98896.78
2023-03-26T20:24:41.694Z,98890.59
2023-03-26T20:27:16.533Z,98893.20
2023-03-26T20:29:49.786Z,98898.30
2023-03-26T20:32:26.971Z,98894.88
2023-03-26T20:34:59.223Z,98884.08
2023-03-26T20:37:33.536Z,98885.05
2023-03-26T20:40:07.208Z,98881.58
2023-03-26T20:42:42.594Z,98876.80
2023-03-26T20:45:22.865Z,98881.08
2023-03-26T20:47:57.824Z,98881.47
2023-03-26T20:50:31.657Z,98885.75
2023-03-26T20:53:05.726Z,98882.26
2023-03-26T20:55:38.950Z,98875.20
2023-03-26T20:58:15.559Z,98875.69
2023-03-26T21:00:51.121Z,98868.31
2023-03-26T21:03:24.341Z,98871.89
2023-03-26T21:06:03.717Z,98864.52
2023-03-26T21:08:38.180Z,98857.99
2023-03-26T21:11:57.425Z,98863.69
2023-03-26T21:14:44.562Z,98857.66
2023-03-26T21:17:20.954Z,98853.09
2023-03-26T21:19:55.031Z,98863.95
2023-03-26T21:23:07.826Z,98866.37
2023-03-26T21:25:52.922Z,98860.02
2023-03-26T21:28:42.362Z,98855.97
2023-03-26T21:31:23.394Z,98856.36
2023-03-26T21:33:57.138Z,98860.69
2023-03-26T21:36:30.777Z,98853.69
2023-03-26T21:39:05.394Z,98855.05
2023-03-26T21:42:05.166Z,98861.06
2023-03-26T21:44:26.791Z,98863.43
2023-03-26T21:46:59.872Z,98866.13
2023-03-26T21:49:34.047Z,98865.62
2023-03-26T21:52:07.460Z,98869.89
2023-03-26T21:54:42.016Z,98862.41
2023-03-26T21:57:34.443Z,98867.28
2023-03-26T22:00:19.057Z,98859.34
2023-03-26T22:03:26.759Z,98856.62
2023-03-26T22:06:14.920Z,98852.22
2023-03-26T22:08:49.544Z,98851.10
2023-03-26T22:11:22.561Z,98857.13
2023-03-26T22:13:57.137Z,98861.10
2023-03-26T22:16:28.942Z,98856.83
2023-03-26T22:19:02.144Z,98856.95
2023-03-26T22:21:36.162Z,98862.16
2023-03-26T22:24:10.419Z,98863.07
2023-03-26T22:26:43.490Z,98859.98
2023-03-26T22:29:17.134Z,98872.95
2023-03-26T22:31:49.814Z,98866.44
2023-03-26T22:34:23.993Z,98871.16
2023-03-26T22:36:57.520Z,98863.47
2023-03-26T22:39:31.486Z,98871.77
2023-03-26T22:42:05.318Z,98871.77
2023-03-26T22:44:38.869Z,98867.86
2023-03-26T22:47:13.362Z,98867.05
2023-03-26T22:49:46.911Z,98863.47
2023-03-26T22:52:20.346Z,98856.02
2023-03-26T22:54:53.310Z,98856.89
2023-03-26T22:57:27.770Z,98860.98
2023-03-26T23:00:02.459Z,98859.34
2023-03-26T23:02:36.804Z,98862.89
2023-03-26T23:05:11.654Z,98860.65
2023-03-26T23:07:46.462Z,98860.92
2023-03-26T23:10:19.687Z,98864.25
2023-03-26T23:12:54.572Z,98859.38
2023-03-26T23:15:28.008Z,98860.28
2023-03-26T23:18:02.275Z,98861.98
2023-03-26T23:20:36.354Z,98853.83
2023-03-26T23:23:09.556Z,98857.73
2023-03-26T23:25:45.569Z,98858.07
2023-03-26T23:28:20.022Z,98863.28
2023-03-26T23:30:55.610Z,98867.98
2023-03-26T23:33:35.482Z,98853.77
2023-03-26T23:36:11.032Z,98862.53
2023-03-26T23:38:47.027Z,98863.77
2023-03-26T23:41:25.538Z,98865.02
2023-03-26T23:43:58.221Z,98872.70
2023-03-26T23:46:33.212Z,98860.98
2023-03-26T23:49:06.319Z,98858.44
2023-03-26T23:51:39.508Z,98854.89
2023-03-26T23:54:13.058Z,98853.95
2023-03-26T23:56:46.272Z,98857.07
2023-03-26T23:59:19.491Z,98846.41
